Terminal Aerodrome Forecast
Issued by NWS

Home | Current Version | Previous Version | Text Only | Print | Product List | Glossary On
Versions: 1 2 3 4 5 6 7 8 9 10 11 12 13 14 15 16 17 18
815
FTUS43 KLSX 110125 AAA
TAFCPS
TAF AMD
KCPS 110125Z 1101/1124 VRB03KT 6SM -SN OVC060
     FM110400 09005KT P6SM OVC040
     FM110700 05006KT P6SM OVC035
     FM111600 02006KT P6SM BKN150=

USA.gov is the U.S. government's official web portal to all federal, state and local government web resources and services.